Accomac, Pennsylvania
Current Conditions -  °F | °C
As of 4:56 PM on Tuesday 21 Oct 2014 (Local Time) from KMDT Reporting Station
Broken Clouds Broken Clouds  
Wind Chill: 60°   Ceiling: 8000
Heat Index: 60°   Visibility: 10mi
Dew Point: 49°   Wind: 7mph
Humidity: 67%   Direction: 310°NW
Pressure: 29.82"   Gusts: NA
Location:  40.0152°N, 76.5974°W
Report Text: KMDT 212056Z 31006KT 10SM SCT050 BKN080 BKN120 16/09 A2982 RMK AO2 SLP100 T01560094 55002
Loading
Personal Weather Stations






























Interactive Weather Map
Tropical Storm Tracking
New forecast layout! Learn more

10-Day Weather Forecast

Advertisements
Track Severe Weather on mobile